createdAt,value
2022-08-21T05:46:18.901Z,4.00
2022-08-21T05:48:46.927Z,4.00
2022-08-21T05:51:17.240Z,4.70
2022-08-21T05:53:46.685Z,5.23
2022-08-21T05:56:16.069Z,4.23
2022-08-21T05:58:45.011Z,4.47
2022-08-21T06:01:13.213Z,3.70
2022-08-21T06:03:43.846Z,4.30
2022-08-21T06:06:11.881Z,4.83
2022-08-21T06:08:40.298Z,3.83
2022-08-21T06:11:08.728Z,4.50
2022-08-21T06:13:37.422Z,4.27
2022-08-21T06:16:08.448Z,3.90
2022-08-21T06:18:37.487Z,3.80
2022-08-21T06:21:07.696Z,4.40
2022-08-21T06:23:36.606Z,3.80
2022-08-21T06:26:06.304Z,4.33
2022-08-21T06:28:34.872Z,4.27
2022-08-21T06:31:03.335Z,4.00
2022-08-21T06:33:32.797Z,4.97
2022-08-21T06:36:01.040Z,4.10
2022-08-21T06:38:30.501Z,4.00
2022-08-21T06:40:59.607Z,4.67
2022-08-21T06:43:39.940Z,3.77
2022-08-21T06:46:09.131Z,4.40
2022-08-21T06:48:37.327Z,3.73
2022-08-21T06:51:05.953Z,3.93
2022-08-21T06:53:35.489Z,4.37
2022-08-21T06:56:03.799Z,4.20
2022-08-21T06:58:31.959Z,4.00
2022-08-21T07:01:01.416Z,3.80
2022-08-21T07:03:32.491Z,4.43
2022-08-21T07:06:00.695Z,3.97
2022-08-21T07:08:30.085Z,4.17
2022-08-21T07:11:01.907Z,4.27
2022-08-21T07:13:30.545Z,4.40
2022-08-21T07:16:03.705Z,4.53
2022-08-21T07:18:32.184Z,4.50
2022-08-21T07:21:00.224Z,4.00
2022-08-21T07:23:30.520Z,4.80
2022-08-21T07:26:00.475Z,4.20
2022-08-21T07:28:28.990Z,4.30
2022-08-21T07:30:59.701Z,4.00
2022-08-21T07:33:29.795Z,4.20
2022-08-21T07:35:57.809Z,4.37
2022-08-21T07:38:26.394Z,4.63
2022-08-21T07:40:57.738Z,4.10
2022-08-21T07:43:28.213Z,4.20
2022-08-21T07:45:56.470Z,4.73
2022-08-21T07:48:25.595Z,4.07
2022-08-21T07:50:53.988Z,4.23
2022-08-21T07:53:21.972Z,4.10
2022-08-21T07:55:50.532Z,3.67
2022-08-21T07:58:18.598Z,3.87
2022-08-21T08:00:47.995Z,4.13
2022-08-21T08:03:15.992Z,3.83
2022-08-21T08:05:57.615Z,3.20
2022-08-21T08:08:25.913Z,3.30
2022-08-21T08:10:55.067Z,3.60
2022-08-21T08:13:23.138Z,2.53
2022-08-21T08:15:52.553Z,2.90
2022-08-21T08:18:20.620Z,2.63
2022-08-21T08:20:48.756Z,2.53
2022-08-21T08:23:17.596Z,2.83
2022-08-21T08:25:45.897Z,2.90
2022-08-21T08:28:17.352Z,2.53
2022-08-21T08:30:46.645Z,2.83
2022-08-21T08:33:17.357Z,2.47
2022-08-21T08:35:48.640Z,2.60
2022-08-21T08:38:20.858Z,2.80
2022-08-21T08:40:56.537Z,2.43
2022-08-21T08:43:24.613Z,2.60
2022-08-21T08:45:55.465Z,2.33
2022-08-21T08:48:50.612Z,2.73
2022-08-21T08:51:26.509Z,2.20
2022-08-21T08:54:00.826Z,2.33
2022-08-21T08:56:32.325Z,2.13
2022-08-21T08:59:12.088Z,2.30
2022-08-21T09:01:40.309Z,2.77
2022-08-21T09:04:11.264Z,2.97
2022-08-21T09:07:03.804Z,2.88
2022-08-21T09:09:41.402Z,2.33
2022-08-21T09:12:18.509Z,2.67
2022-08-21T09:14:57.319Z,2.37
2022-08-21T09:17:37.554Z,2.77
2022-08-21T09:20:19.862Z,2.50
2022-08-21T09:23:02.072Z,2.60
2022-08-21T09:25:37.148Z,2.60
2022-08-21T09:28:06.074Z,2.60
2022-08-21T09:30:34.886Z,2.17
2022-08-21T09:33:03.018Z,2.60
2022-08-21T09:35:33.407Z,2.90
2022-08-21T09:38:06.494Z,2.17
2022-08-21T09:40:38.991Z,2.10
2022-08-21T09:43:18.073Z,2.20
2022-08-21T09:45:47.867Z,2.20
2022-08-21T09:48:19.641Z,2.60
2022-08-21T09:50:51.098Z,2.10
2022-08-21T09:53:22.387Z,2.10
2022-08-21T09:56:11.107Z,2.35
2022-08-21T09:58:42.418Z,2.17
2022-08-21T10:01:16.623Z,1.95
2022-08-21T10:03:45.002Z,2.55
2022-08-21T10:06:27.564Z,2.28
2022-08-21T10:09:06.793Z,2.72
2022-08-21T10:11:36.251Z,2.70
2022-08-21T10:14:15.123Z,2.25
2022-08-21T10:16:54.597Z,2.83
2022-08-21T10:19:33.001Z,2.50
2022-08-21T10:22:17.113Z,2.60
2022-08-21T10:24:53.399Z,2.97
2022-08-21T10:27:30.495Z,2.08
2022-08-21T10:30:04.163Z,2.42
2022-08-21T10:33:05.250Z,2.33
2022-08-21T10:35:38.474Z,2.70
2022-08-21T10:38:55.335Z,3.00
2022-08-21T10:41:46.765Z,2.40
2022-08-21T10:44:29.256Z,2.80
2022-08-21T10:47:10.105Z,2.33
2022-08-21T10:49:43.518Z,2.08
2022-08-21T10:52:33.801Z,3.15
2022-08-21T10:55:11.215Z,2.65
2022-08-21T10:57:45.888Z,2.55
2022-08-21T11:00:17.396Z,2.40
2022-08-21T11:02:51.711Z,2.60
2022-08-21T11:05:23.843Z,2.38
2022-08-21T11:07:57.095Z,2.42
2022-08-21T11:10:35.272Z,2.85
2022-08-21T11:13:08.222Z,2.88
2022-08-21T11:15:45.853Z,2.30
2022-08-21T11:18:23.939Z,2.30
2022-08-21T11:21:02.138Z,2.38
2022-08-21T11:23:39.348Z,2.30
2022-08-21T11:26:13.659Z,2.45
2022-08-21T11:28:48.772Z,2.30
2022-08-21T11:31:34.003Z,2.30
2022-08-21T11:34:15.969Z,2.70
2022-08-21T11:36:53.871Z,2.40
2022-08-21T11:39:28.286Z,1.98
2022-08-21T11:42:09.250Z,2.78
2022-08-21T11:44:48.920Z,2.45
2022-08-21T11:47:26.573Z,2.60
2022-08-21T11:50:34.457Z,2.22
2022-08-21T11:53:10.079Z,2.63
2022-08-21T11:55:43.109Z,2.58
2022-08-21T11:58:19.987Z,2.10
2022-08-21T12:00:52.009Z,2.55
2022-08-21T12:03:30.146Z,2.47
2022-08-21T12:06:00.975Z,2.33
2022-08-21T12:08:31.741Z,2.17
2022-08-21T12:11:05.966Z,1.83
2022-08-21T12:13:42.071Z,2.75
2022-08-21T12:16:16.427Z,2.92
2022-08-21T12:18:45.208Z,2.70
2022-08-21T12:21:26.218Z,2.92
2022-08-21T12:24:04.972Z,2.40
2022-08-21T12:26:36.028Z,2.53
2022-08-21T12:29:13.986Z,2.67
2022-08-21T12:31:55.654Z,2.70
2022-08-21T12:34:28.367Z,2.72
2022-08-21T12:37:00.750Z,2.95
2022-08-21T12:39:33.226Z,2.63
2022-08-21T12:42:05.452Z,2.42
2022-08-21T12:44:40.929Z,2.35
2022-08-21T12:47:18.192Z,2.83
2022-08-21T12:49:58.843Z,2.67
2022-08-21T12:52:35.706Z,2.47
2022-08-21T12:55:08.776Z,2.70
2022-08-21T12:57:38.338Z,2.38
2022-08-21T13:00:12.903Z,1.88
2022-08-21T13:02:45.952Z,2.20
2022-08-21T13:05:17.105Z,2.35
2022-08-21T13:07:48.360Z,2.33
2022-08-21T13:10:21.404Z,2.33
2022-08-21T13:12:50.317Z,2.15
2022-08-21T13:15:29.604Z,2.10
2022-08-21T13:18:03.782Z,2.92
2022-08-21T13:20:35.432Z,2.50
2022-08-21T13:23:04.586Z,2.50
2022-08-21T13:25:38.666Z,2.55
2022-08-21T13:28:09.957Z,2.10
2022-08-21T13:30:45.057Z,2.50
2022-08-21T13:33:15.035Z,2.50
2022-08-21T13:35:53.567Z,2.67
2022-08-21T13:38:31.401Z,1.92
2022-08-21T13:41:03.420Z,3.42
2022-08-21T13:43:35.110Z,2.13
2022-08-21T13:46:12.823Z,2.30
2022-08-21T13:48:41.169Z,2.42
2022-08-21T13:51:10.094Z,2.75
2022-08-21T13:53:47.566Z,2.63
2022-08-21T13:56:25.522Z,2.45
2022-08-21T13:58:53.716Z,2.35
2022-08-21T14:01:26.101Z,2.70
2022-08-21T14:03:58.966Z,2.85
2022-08-21T14:06:29.483Z,2.42
2022-08-21T14:09:01.703Z,2.08
2022-08-21T14:11:34.666Z,2.67
2022-08-21T14:14:05.907Z,2.13
2022-08-21T14:16:46.592Z,2.15
2022-08-21T14:19:22.256Z,2.88
2022-08-21T14:21:51.154Z,2.30
2022-08-21T14:24:29.538Z,2.50
2022-08-21T14:27:00.398Z,2.60
2022-08-21T14:29:34.529Z,2.53
2022-08-21T14:32:21.565Z,2.45
2022-08-21T14:34:50.031Z,2.25
2022-08-21T14:37:18.019Z,2.00
2022-08-21T14:39:46.644Z,2.63
2022-08-21T14:42:15.164Z,2.08
2022-08-21T14:44:43.197Z,2.63
2022-08-21T14:47:12.807Z,2.47
2022-08-21T14:49:40.847Z,2.22
2022-08-21T14:52:08.958Z,2.42
2022-08-21T14:54:37.639Z,2.00
2022-08-21T14:57:11.087Z,2.30
2022-08-21T14:59:39.581Z,2.55
2022-08-21T15:02:08.884Z,2.22
2022-08-21T15:04:38.394Z,2.47
2022-08-21T15:07:06.531Z,2.55
2022-08-21T15:09:34.665Z,2.88
2022-08-21T15:12:05.139Z,2.17
2022-08-21T15:14:36.573Z,2.75
2022-08-21T15:17:05.188Z,2.75
2022-08-21T15:19:33.439Z,2.13
2022-08-21T15:22:02.785Z,2.50
2022-08-21T15:24:30.799Z,2.42
2022-08-21T15:27:02.105Z,2.55
2022-08-21T15:29:33.455Z,2.53
2022-08-21T15:32:04.648Z,2.30
2022-08-21T15:34:33.364Z,2.33
2022-08-21T15:37:02.704Z,3.28
2022-08-21T15:39:31.482Z,2.47
2022-08-21T15:42:02.757Z,2.63
2022-08-21T15:44:39.318Z,2.63
2022-08-21T15:47:09.481Z,2.38
2022-08-21T15:49:37.506Z,2.50
2022-08-21T15:52:07.108Z,3.03
2022-08-21T15:54:35.111Z,2.83
2022-08-21T15:57:03.193Z,3.28
2022-08-21T15:59:40.406Z,2.53
2022-08-21T16:02:10.573Z,2.75
2022-08-21T16:04:38.590Z,2.65
2022-08-21T16:07:09.793Z,2.42
2022-08-21T16:09:38.269Z,2.45
2022-08-21T16:12:07.281Z,2.60
2022-08-21T16:14:38.125Z,2.85
2022-08-21T16:17:07.317Z,2.92
2022-08-21T16:19:36.729Z,2.53
2022-08-21T16:22:05.075Z,3.38
2022-08-21T16:24:34.641Z,3.10
2022-08-21T16:27:04.245Z,2.90
2022-08-21T16:29:38.330Z,2.38
2022-08-21T16:32:09.042Z,3.80
2022-08-21T16:34:37.601Z,3.33
2022-08-21T16:37:05.749Z,3.35
2022-08-21T16:39:35.243Z,3.08
2022-08-21T16:42:03.397Z,2.90
2022-08-21T16:44:31.477Z,3.92
2022-08-21T16:46:59.601Z,2.90
2022-08-21T16:49:27.701Z,3.80
2022-08-21T16:51:55.683Z,3.20
2022-08-21T16:54:24.114Z,3.13
2022-08-21T16:56:54.212Z,3.70
2022-08-21T16:59:22.598Z,3.42
2022-08-21T17:01:51.184Z,4.50
2022-08-21T17:04:20.420Z,3.00
2022-08-21T17:06:48.559Z,3.45
2022-08-21T17:09:16.806Z,3.20
2022-08-21T17:11:49.251Z,3.33
2022-08-21T17:14:22.317Z,3.70
2022-08-21T17:16:53.979Z,4.27
2022-08-21T17:19:22.762Z,5.25
2022-08-21T17:21:50.835Z,4.05
2022-08-21T17:24:18.968Z,3.33
2022-08-21T17:26:47.497Z,3.30
2022-08-21T17:29:16.376Z,3.67
2022-08-21T17:31:47.039Z,4.60
2022-08-21T17:34:15.831Z,4.30
2022-08-21T17:36:43.964Z,3.77
2022-08-21T17:39:12.958Z,4.00
2022-08-21T17:41:46.640Z,3.97
2022-08-21T17:44:18.778Z,3.38
2022-08-21T17:46:48.780Z,3.08
2022-08-21T17:49:16.971Z,2.80
2022-08-21T17:51:44.953Z,3.63
2022-08-21T17:54:13.180Z,3.08
2022-08-21T17:56:42.783Z,3.00
2022-08-21T17:59:11.547Z,3.80
2022-08-21T18:01:43.595Z,2.90
2022-08-21T18:04:13.596Z,2.93
2022-08-21T18:06:42.899Z,3.63
2022-08-21T18:09:12.954Z,3.60
2022-08-21T18:11:42.751Z,3.67
2022-08-21T18:14:12.414Z,3.53
2022-08-21T18:16:40.469Z,3.10
2022-08-21T18:19:11.860Z,3.30
2022-08-21T18:21:41.265Z,3.00
2022-08-21T18:24:09.401Z,3.97
2022-08-21T18:26:40.396Z,2.90
2022-08-21T18:29:12.164Z,3.63
2022-08-21T18:31:43.630Z,3.23
2022-08-21T18:34:20.655Z,5.33
2022-08-21T18:36:50.339Z,3.50
2022-08-21T18:39:35.955Z,3.53
2022-08-21T18:42:10.104Z,3.53
2022-08-21T18:44:39.630Z,3.97
2022-08-21T18:47:11.623Z,3.40
2022-08-21T18:52:30.695Z,4.13
2022-08-21T18:54:58.829Z,3.23
2022-08-21T18:57:34.643Z,3.47
2022-08-21T19:02:56.500Z,3.67
2022-08-21T19:05:25.549Z,3.60
2022-08-21T19:07:56.144Z,3.10
2022-08-21T19:10:28.836Z,2.90
2022-08-21T19:12:59.831Z,3.80
2022-08-21T19:15:28.616Z,4.20
2022-08-21T19:17:58.750Z,3.07
2022-08-21T19:20:29.184Z,3.57
2022-08-21T19:22:58.682Z,3.33
2022-08-21T19:25:32.899Z,3.67
2022-08-21T19:28:02.882Z,3.83
2022-08-21T19:30:31.580Z,3.50
2022-08-21T19:33:00.149Z,3.57
2022-08-21T19:35:28.367Z,3.60
2022-08-21T19:37:56.371Z,3.70
2022-08-21T19:40:26.029Z,3.57
2022-08-21T19:42:54.141Z,4.20
2022-08-21T19:45:22.448Z,3.47
2022-08-21T19:47:58.716Z,3.40
2022-08-21T19:50:27.269Z,4.30
2022-08-21T19:52:55.429Z,3.57
2022-08-21T19:55:24.859Z,3.87
2022-08-21T19:57:54.653Z,4.03
2022-08-21T20:00:23.991Z,4.00
2022-08-21T20:02:53.101Z,4.07
2022-08-21T20:05:21.652Z,4.27
2022-08-21T20:07:50.013Z,4.83
2022-08-21T20:10:18.709Z,4.10
2022-08-21T20:12:51.347Z,4.63
2022-08-21T20:15:22.029Z,5.30
2022-08-21T20:17:51.675Z,5.33
2022-08-21T20:20:21.243Z,5.73
2022-08-21T20:22:49.669Z,5.50
2022-08-21T20:25:17.775Z,4.90
2022-08-21T20:27:50.712Z,4.70
2022-08-21T20:30:22.899Z,5.23
2022-08-21T20:32:51.162Z,5.50
2022-08-21T20:35:19.778Z,4.67
2022-08-21T20:37:59.009Z,4.57
2022-08-21T20:40:32.539Z,4.37
2022-08-21T20:43:03.197Z,4.40
2022-08-21T20:45:32.864Z,4.60
2022-08-21T20:48:05.636Z,4.60
2022-08-21T20:50:38.433Z,4.47
2022-08-21T20:53:13.046Z,4.00
2022-08-21T20:55:47.290Z,4.77
2022-08-21T20:58:29.557Z,4.27
2022-08-21T21:01:01.580Z,4.30
2022-08-21T21:03:35.068Z,4.50
2022-08-21T21:06:07.726Z,4.20
2022-08-21T21:08:42.028Z,4.17
2022-08-21T21:11:20.570Z,4.47
2022-08-21T21:13:55.499Z,4.53
2022-08-21T21:16:28.851Z,4.50
2022-08-21T21:19:01.948Z,4.53
2022-08-21T21:21:33.756Z,4.80
2022-08-21T21:24:08.638Z,4.33
2022-08-21T21:26:44.602Z,4.60
2022-08-21T21:29:21.953Z,4.63
2022-08-21T21:31:52.492Z,5.27
2022-08-21T21:34:22.033Z,4.60
2022-08-21T21:36:56.519Z,4.73
2022-08-21T21:39:36.263Z,6.20
2022-08-21T21:42:12.522Z,5.03
2022-08-21T21:45:04.261Z,5.90
2022-08-21T21:47:44.076Z,4.97
2022-08-21T21:50:25.851Z,4.83
2022-08-21T21:53:03.752Z,5.90
2022-08-21T21:55:55.630Z,5.30
2022-08-21T21:58:38.219Z,5.97
2022-08-21T22:01:13.719Z,5.93
2022-08-21T22:03:51.217Z,6.33
2022-08-21T22:06:28.481Z,5.97
2022-08-21T22:09:05.596Z,5.80
2022-08-21T22:11:55.580Z,6.23
2022-08-21T22:14:30.215Z,6.50
2022-08-21T22:17:07.539Z,6.20
2022-08-21T22:19:42.550Z,6.43
2022-08-21T22:22:15.174Z,6.80
